sensor_id;sensor_type;location;lat;lon;timestamp;P1;durP1;ratioP1;P2;durP2;ratioP2
5841;SDS011;2947;52.276;9.946;2023-02-28T00:00:31;5.00;;;2.30;;
5841;SDS011;2947;52.276;9.946;2023-02-28T00:02:57;5.97;;;2.30;;
5841;SDS011;2947;52.276;9.946;2023-02-28T00:05:23;5.70;;;2.57;;
5841;SDS011;2947;52.276;9.946;2023-02-28T00:07:51;4.50;;;2.20;;
5841;SDS011;2947;52.276;9.946;2023-02-28T00:10:21;7.60;;;4.00;;
5841;SDS011;2947;52.276;9.946;2023-02-28T00:12:50;7.70;;;3.53;;
5841;SDS011;2947;52.276;9.946;2023-02-28T00:15:16;5.33;;;2.60;;
5841;SDS011;2947;52.276;9.946;2023-02-28T00:17:43;6.20;;;2.67;;
5841;SDS011;2947;52.276;9.946;2023-02-28T00:20:11;5.23;;;2.87;;
5841;SDS011;2947;52.276;9.946;2023-02-28T00:22:39;5.73;;;2.27;;
5841;SDS011;2947;52.276;9.946;2023-02-28T00:25:12;10.87;;;3.73;;
5841;SDS011;2947;52.276;9.946;2023-02-28T00:27:42;10.80;;;4.70;;
5841;SDS011;2947;52.276;9.946;2023-02-28T00:30:09;13.93;;;5.50;;
5841;SDS011;2947;52.276;9.946;2023-02-28T00:32:45;10.07;;;4.43;;
5841;SDS011;2947;52.276;9.946;2023-02-28T00:35:11;10.57;;;4.10;;
5841;SDS011;2947;52.276;9.946;2023-02-28T00:37:38;8.23;;;4.30;;
5841;SDS011;2947;52.276;9.946;2023-02-28T00:40:04;12.73;;;5.00;;
5841;SDS011;2947;52.276;9.946;2023-02-28T00:42:31;11.00;;;4.33;;
5841;SDS011;2947;52.276;9.946;2023-02-28T00:45:01;7.07;;;3.30;;
5841;SDS011;2947;52.276;9.946;2023-02-28T00:47:31;4.93;;;2.90;;
5841;SDS011;2947;52.276;9.946;2023-02-28T00:49:57;7.30;;;3.60;;
5841;SDS011;2947;52.276;9.946;2023-02-28T00:52:23;7.77;;;3.20;;
5841;SDS011;2947;52.276;9.946;2023-02-28T00:54:48;7.73;;;3.57;;
5841;SDS011;2947;52.276;9.946;2023-02-28T00:57:14;7.40;;;4.10;;
5841;SDS011;2947;52.276;9.946;2023-02-28T00:59:40;8.30;;;3.10;;
5841;SDS011;2947;52.276;9.946;2023-02-28T01:02:06;6.47;;;3.27;;
5841;SDS011;2947;52.276;9.946;2023-02-28T01:04:31;5.87;;;3.63;;
5841;SDS011;2947;52.276;9.946;2023-02-28T01:06:57;6.77;;;3.23;;
5841;SDS011;2947;52.276;9.946;2023-02-28T01:09:23;9.63;;;3.70;;
5841;SDS011;2947;52.276;9.946;2023-02-28T01:11:49;10.70;;;5.30;;
5841;SDS011;2947;52.276;9.946;2023-02-28T01:14:15;7.67;;;4.10;;
5841;SDS011;2947;52.276;9.946;2023-02-28T01:16:41;9.27;;;4.50;;
5841;SDS011;2947;52.276;9.946;2023-02-28T01:19:07;8.53;;;4.57;;
5841;SDS011;2947;52.276;9.946;2023-02-28T01:21:33;11.50;;;5.23;;
5841;SDS011;2947;52.276;9.946;2023-02-28T01:24:00;7.07;;;4.00;;
5841;SDS011;2947;52.276;9.946;2023-02-28T01:26:27;6.13;;;4.33;;
5841;SDS011;2947;52.276;9.946;2023-02-28T01:28:53;9.03;;;3.70;;
5841;SDS011;2947;52.276;9.946;2023-02-28T01:31:19;4.80;;;2.90;;
5841;SDS011;2947;52.276;9.946;2023-02-28T01:33:46;5.90;;;3.50;;
5841;SDS011;2947;52.276;9.946;2023-02-28T01:36:19;11.23;;;4.03;;
5841;SDS011;2947;52.276;9.946;2023-02-28T01:38:47;6.10;;;2.90;;
5841;SDS011;2947;52.276;9.946;2023-02-28T01:41:24;11.03;;;3.60;;
5841;SDS011;2947;52.276;9.946;2023-02-28T01:43:54;5.80;;;3.10;;
5841;SDS011;2947;52.276;9.946;2023-02-28T01:46:31;9.97;;;3.70;;
5841;SDS011;2947;52.276;9.946;2023-02-28T01:49:17;7.73;;;4.23;;
5841;SDS011;2947;52.276;9.946;2023-02-28T01:51:45;8.90;;;4.87;;
5841;SDS011;2947;52.276;9.946;2023-02-28T01:54:18;12.40;;;5.40;;
5841;SDS011;2947;52.276;9.946;2023-02-28T01:56:55;11.20;;;5.17;;
5841;SDS011;2947;52.276;9.946;2023-02-28T01:59:26;9.07;;;4.60;;
5841;SDS011;2947;52.276;9.946;2023-02-28T02:01:59;11.00;;;5.27;;
5841;SDS011;2947;52.276;9.946;2023-02-28T02:04:27;8.80;;;4.50;;
5841;SDS011;2947;52.276;9.946;2023-02-28T02:07:02;11.90;;;4.13;;
5841;SDS011;2947;52.276;9.946;2023-02-28T02:09:29;11.33;;;5.07;;
5841;SDS011;2947;52.276;9.946;2023-02-28T02:11:54;7.73;;;4.40;;
5841;SDS011;2947;52.276;9.946;2023-02-28T02:17:20;8.67;;;5.20;;
5841;SDS011;2947;52.276;9.946;2023-02-28T02:23:13;9.03;;;4.47;;
5841;SDS011;2947;52.276;9.946;2023-02-28T02:26:03;9.17;;;4.10;;
5841;SDS011;2947;52.276;9.946;2023-02-28T02:34:41;14.23;;;5.70;;
5841;SDS011;2947;52.276;9.946;2023-02-28T02:37:15;8.50;;;4.50;;
5841;SDS011;2947;52.276;9.946;2023-02-28T02:39:56;8.50;;;3.87;;
5841;SDS011;2947;52.276;9.946;2023-02-28T02:46:20;7.30;;;4.10;;
5841;SDS011;2947;52.276;9.946;2023-02-28T02:48:54;9.83;;;4.47;;
5841;SDS011;2947;52.276;9.946;2023-02-28T02:51:21;8.73;;;4.40;;
5841;SDS011;2947;52.276;9.946;2023-02-28T02:53:50;14.93;;;5.37;;
5841;SDS011;2947;52.276;9.946;2023-02-28T02:56:23;7.20;;;3.80;;
5841;SDS011;2947;52.276;9.946;2023-02-28T02:58:54;8.67;;;4.70;;
5841;SDS011;2947;52.276;9.946;2023-02-28T03:01:27;7.43;;;4.00;;
5841;SDS011;2947;52.276;9.946;2023-02-28T03:03:57;9.17;;;4.70;;
5841;SDS011;2947;52.276;9.946;2023-02-28T03:06:26;8.37;;;4.43;;
5841;SDS011;2947;52.276;9.946;2023-02-28T03:08:52;13.00;;;4.60;;
5841;SDS011;2947;52.276;9.946;2023-02-28T03:11:18;9.10;;;4.73;;
5841;SDS011;2947;52.276;9.946;2023-02-28T03:16:59;9.33;;;4.60;;
5841;SDS011;2947;52.276;9.946;2023-02-28T03:22:56;16.00;;;5.80;;
5841;SDS011;2947;52.276;9.946;2023-02-28T03:28:49;12.50;;;4.93;;
5841;SDS011;2947;52.276;9.946;2023-02-28T03:31:41;13.70;;;4.77;;
5841;SDS011;2947;52.276;9.946;2023-02-28T03:34:27;13.03;;;4.77;;
5841;SDS011;2947;52.276;9.946;2023-02-28T03:36:59;7.90;;;4.70;;
5841;SDS011;2947;52.276;9.946;2023-02-28T03:42:34;7.37;;;3.80;;
5841;SDS011;2947;52.276;9.946;2023-02-28T03:45:13;7.17;;;4.37;;
5841;SDS011;2947;52.276;9.946;2023-02-28T03:47:47;10.47;;;4.40;;
5841;SDS011;2947;52.276;9.946;2023-02-28T03:50:41;11.30;;;4.40;;
5841;SDS011;2947;52.276;9.946;2023-02-28T03:53:15;6.87;;;4.03;;
5841;SDS011;2947;52.276;9.946;2023-02-28T03:55:57;9.60;;;4.67;;
5841;SDS011;2947;52.276;9.946;2023-02-28T03:58:47;12.47;;;3.80;;
5841;SDS011;2947;52.276;9.946;2023-02-28T04:01:37;11.40;;;4.80;;
5841;SDS011;2947;52.276;9.946;2023-02-28T04:04:06;7.27;;;3.60;;
5841;SDS011;2947;52.276;9.946;2023-02-28T04:06:34;8.07;;;4.47;;
5841;SDS011;2947;52.276;9.946;2023-02-28T04:09:01;7.97;;;4.80;;
5841;SDS011;2947;52.276;9.946;2023-02-28T04:14:02;9.90;;;4.43;;
5841;SDS011;2947;52.276;9.946;2023-02-28T04:16:32;9.90;;;4.70;;
5841;SDS011;2947;52.276;9.946;2023-02-28T04:19:00;8.13;;;4.67;;
5841;SDS011;2947;52.276;9.946;2023-02-28T04:21:29;13.00;;;5.13;;
5841;SDS011;2947;52.276;9.946;2023-02-28T04:24:26;7.80;;;4.50;;
5841;SDS011;2947;52.276;9.946;2023-02-28T04:26:53;9.87;;;4.50;;
5841;SDS011;2947;52.276;9.946;2023-02-28T04:29:22;9.33;;;4.30;;
5841;SDS011;2947;52.276;9.946;2023-02-28T04:31:51;8.87;;;5.10;;
5841;SDS011;2947;52.276;9.946;2023-02-28T04:34:25;9.63;;;5.00;;
5841;SDS011;2947;52.276;9.946;2023-02-28T04:36:52;10.80;;;5.70;;
5841;SDS011;2947;52.276;9.946;2023-02-28T04:39:19;14.13;;;5.07;;
5841;SDS011;2947;52.276;9.946;2023-02-28T04:41:46;11.30;;;4.80;;
5841;SDS011;2947;52.276;9.946;2023-02-28T04:44:12;10.50;;;5.70;;
5841;SDS011;2947;52.276;9.946;2023-02-28T04:46:39;10.83;;;5.80;;
5841;SDS011;2947;52.276;9.946;2023-02-28T04:49:05;11.20;;;5.80;;
5841;SDS011;2947;52.276;9.946;2023-02-28T04:51:30;9.90;;;5.57;;
5841;SDS011;2947;52.276;9.946;2023-02-28T04:53:56;10.50;;;5.50;;
5841;SDS011;2947;52.276;9.946;2023-02-28T04:56:25;24.50;;;7.00;;
5841;SDS011;2947;52.276;9.946;2023-02-28T04:58:51;12.97;;;5.33;;
5841;SDS011;2947;52.276;9.946;2023-02-28T05:01:19;9.53;;;5.90;;
5841;SDS011;2947;52.276;9.946;2023-02-28T05:03:51;14.83;;;6.60;;
5841;SDS011;2947;52.276;9.946;2023-02-28T05:06:18;8.57;;;4.90;;
5841;SDS011;2947;52.276;9.946;2023-02-28T05:08:46;7.13;;;4.50;;
5841;SDS011;2947;52.276;9.946;2023-02-28T05:11:17;42.80;;;6.60;;
5841;SDS011;2947;52.276;9.946;2023-02-28T05:14:04;10.13;;;5.30;;
5841;SDS011;2947;52.276;9.946;2023-02-28T05:16:34;13.30;;;5.67;;
5841;SDS011;2947;52.276;9.946;2023-02-28T05:19:00;10.37;;;5.57;;
5841;SDS011;2947;52.276;9.946;2023-02-28T05:21:30;10.80;;;4.90;;
5841;SDS011;2947;52.276;9.946;2023-02-28T05:24:00;11.53;;;5.07;;
5841;SDS011;2947;52.276;9.946;2023-02-28T05:26:28;12.73;;;5.93;;
5841;SDS011;2947;52.276;9.946;2023-02-28T05:28:55;12.03;;;5.43;;
5841;SDS011;2947;52.276;9.946;2023-02-28T05:31:21;9.13;;;5.13;;
5841;SDS011;2947;52.276;9.946;2023-02-28T05:33:47;11.50;;;5.40;;
5841;SDS011;2947;52.276;9.946;2023-02-28T05:36:13;9.47;;;5.50;;
5841;SDS011;2947;52.276;9.946;2023-02-28T05:38:38;10.90;;;5.70;;
5841;SDS011;2947;52.276;9.946;2023-02-28T05:41:05;9.47;;;5.33;;
5841;SDS011;2947;52.276;9.946;2023-02-28T05:43:32;9.90;;;4.43;;
5841;SDS011;2947;52.276;9.946;2023-02-28T05:45:59;8.73;;;5.43;;
5841;SDS011;2947;52.276;9.946;2023-02-28T05:48:27;13.40;;;6.20;;
5841;SDS011;2947;52.276;9.946;2023-02-28T05:50:53;8.93;;;6.00;;
5841;SDS011;2947;52.276;9.946;2023-02-28T05:53:18;15.13;;;5.83;;
5841;SDS011;2947;52.276;9.946;2023-02-28T05:55:44;13.80;;;7.03;;
5841;SDS011;2947;52.276;9.946;2023-02-28T05:58:10;9.63;;;5.83;;
5841;SDS011;2947;52.276;9.946;2023-02-28T06:00:35;10.90;;;5.53;;
5841;SDS011;2947;52.276;9.946;2023-02-28T06:03:01;14.83;;;7.00;;
5841;SDS011;2947;52.276;9.946;2023-02-28T06:05:27;16.70;;;7.23;;
5841;SDS011;2947;52.276;9.946;2023-02-28T06:07:53;15.50;;;7.20;;
5841;SDS011;2947;52.276;9.946;2023-02-28T06:10:18;13.80;;;5.77;;
5841;SDS011;2947;52.276;9.946;2023-02-28T06:12:44;8.47;;;5.10;;
5841;SDS011;2947;52.276;9.946;2023-02-28T06:15:13;13.90;;;5.57;;
5841;SDS011;2947;52.276;9.946;2023-02-28T06:17:41;8.53;;;5.30;;
5841;SDS011;2947;52.276;9.946;2023-02-28T06:20:07;11.50;;;6.57;;
5841;SDS011;2947;52.276;9.946;2023-02-28T06:22:35;10.83;;;5.90;;
5841;SDS011;2947;52.276;9.946;2023-02-28T06:25:02;13.37;;;5.80;;
5841;SDS011;2947;52.276;9.946;2023-02-28T06:27:30;16.87;;;8.63;;
5841;SDS011;2947;52.276;9.946;2023-02-28T06:29:57;18.03;;;7.90;;
5841;SDS011;2947;52.276;9.946;2023-02-28T06:32:22;13.27;;;8.13;;
5841;SDS011;2947;52.276;9.946;2023-02-28T06:34:48;19.63;;;8.63;;
5841;SDS011;2947;52.276;9.946;2023-02-28T06:37:15;17.60;;;7.43;;
5841;SDS011;2947;52.276;9.946;2023-02-28T06:39:41;19.50;;;6.80;;
5841;SDS011;2947;52.276;9.946;2023-02-28T06:42:07;15.67;;;7.10;;
5841;SDS011;2947;52.276;9.946;2023-02-28T06:44:33;13.10;;;7.77;;
5841;SDS011;2947;52.276;9.946;2023-02-28T06:47:02;14.27;;;6.60;;
5841;SDS011;2947;52.276;9.946;2023-02-28T06:49:30;18.27;;;6.60;;
5841;SDS011;2947;52.276;9.946;2023-02-28T06:51:57;9.63;;;5.73;;
5841;SDS011;2947;52.276;9.946;2023-02-28T06:54:23;12.00;;;6.37;;
5841;SDS011;2947;52.276;9.946;2023-02-28T06:56:49;13.97;;;6.00;;
5841;SDS011;2947;52.276;9.946;2023-02-28T06:59:15;21.80;;;6.50;;
5841;SDS011;2947;52.276;9.946;2023-02-28T07:01:41;15.90;;;7.03;;
5841;SDS011;2947;52.276;9.946;2023-02-28T07:04:07;11.83;;;6.53;;
5841;SDS011;2947;52.276;9.946;2023-02-28T07:06:33;15.40;;;6.50;;
5841;SDS011;2947;52.276;9.946;2023-02-28T07:08:59;12.17;;;5.70;;
5841;SDS011;2947;52.276;9.946;2023-02-28T07:11:25;13.30;;;7.00;;
5841;SDS011;2947;52.276;9.946;2023-02-28T07:13:56;20.90;;;8.80;;
5841;SDS011;2947;52.276;9.946;2023-02-28T07:16:22;22.60;;;9.17;;
5841;SDS011;2947;52.276;9.946;2023-02-28T07:18:49;44.90;;;14.23;;
5841;SDS011;2947;52.276;9.946;2023-02-28T07:21:17;29.17;;;10.83;;
5841;SDS011;2947;52.276;9.946;2023-02-28T07:23:43;18.67;;;8.97;;
5841;SDS011;2947;52.276;9.946;2023-02-28T07:26:11;16.80;;;7.90;;
5841;SDS011;2947;52.276;9.946;2023-02-28T07:28:44;18.23;;;7.50;;
5841;SDS011;2947;52.276;9.946;2023-02-28T07:31:13;44.47;;;17.53;;
5841;SDS011;2947;52.276;9.946;2023-02-28T07:33:40;23.87;;;10.70;;
5841;SDS011;2947;52.276;9.946;2023-02-28T07:36:07;16.37;;;8.17;;
5841;SDS011;2947;52.276;9.946;2023-02-28T07:38:40;13.87;;;7.30;;
5841;SDS011;2947;52.276;9.946;2023-02-28T07:41:08;12.80;;;5.63;;
5841;SDS011;2947;52.276;9.946;2023-02-28T07:43:34;11.87;;;5.33;;
5841;SDS011;2947;52.276;9.946;2023-02-28T07:46:04;10.73;;;4.90;;
5841;SDS011;2947;52.276;9.946;2023-02-28T07:48:36;10.10;;;5.40;;
5841;SDS011;2947;52.276;9.946;2023-02-28T07:51:02;10.00;;;4.73;;
5841;SDS011;2947;52.276;9.946;2023-02-28T07:53:29;9.43;;;5.47;;
5841;SDS011;2947;52.276;9.946;2023-02-28T07:55:58;11.03;;;5.23;;
5841;SDS011;2947;52.276;9.946;2023-02-28T07:58:26;14.53;;;6.10;;
5841;SDS011;2947;52.276;9.946;2023-02-28T08:00:54;15.73;;;6.70;;
5841;SDS011;2947;52.276;9.946;2023-02-28T08:03:21;10.83;;;4.70;;
5841;SDS011;2947;52.276;9.946;2023-02-28T08:05:47;8.40;;;4.50;;
5841;SDS011;2947;52.276;9.946;2023-02-28T08:08:14;11.40;;;5.60;;
5841;SDS011;2947;52.276;9.946;2023-02-28T08:10:41;10.57;;;5.20;;
5841;SDS011;2947;52.276;9.946;2023-02-28T08:13:08;10.20;;;4.37;;
5841;SDS011;2947;52.276;9.946;2023-02-28T08:15:34;10.10;;;4.50;;
5841;SDS011;2947;52.276;9.946;2023-02-28T08:18:01;8.70;;;4.57;;
5841;SDS011;2947;52.276;9.946;2023-02-28T08:20:26;9.63;;;5.27;;
5841;SDS011;2947;52.276;9.946;2023-02-28T08:22:52;10.43;;;5.03;;
5841;SDS011;2947;52.276;9.946;2023-02-28T08:25:18;11.10;;;5.57;;
5841;SDS011;2947;52.276;9.946;2023-02-28T08:27:44;8.03;;;4.67;;
5841;SDS011;2947;52.276;9.946;2023-02-28T08:30:11;10.27;;;4.97;;
5841;SDS011;2947;52.276;9.946;2023-02-28T08:32:39;12.13;;;4.87;;
5841;SDS011;2947;52.276;9.946;2023-02-28T08:35:05;7.77;;;4.70;;
5841;SDS011;2947;52.276;9.946;2023-02-28T08:37:31;9.43;;;5.40;;
5841;SDS011;2947;52.276;9.946;2023-02-28T08:39:57;9.97;;;5.47;;
5841;SDS011;2947;52.276;9.946;2023-02-28T08:42:23;6.20;;;3.90;;
5841;SDS011;2947;52.276;9.946;2023-02-28T08:44:49;12.30;;;4.77;;
5841;SDS011;2947;52.276;9.946;2023-02-28T08:47:15;8.20;;;3.97;;
5841;SDS011;2947;52.276;9.946;2023-02-28T08:49:41;8.90;;;4.03;;
5841;SDS011;2947;52.276;9.946;2023-02-28T08:52:07;7.93;;;4.20;;
5841;SDS011;2947;52.276;9.946;2023-02-28T08:54:32;10.50;;;4.67;;
5841;SDS011;2947;52.276;9.946;2023-02-28T08:56:59;7.87;;;5.17;;
5841;SDS011;2947;52.276;9.946;2023-02-28T08:59:25;8.33;;;4.77;;
5841;SDS011;2947;52.276;9.946;2023-02-28T09:01:50;6.50;;;3.93;;
5841;SDS011;2947;52.276;9.946;2023-02-28T09:04:16;10.53;;;4.33;;
5841;SDS011;2947;52.276;9.946;2023-02-28T09:06:42;14.10;;;6.03;;
5841;SDS011;2947;52.276;9.946;2023-02-28T09:09:07;11.97;;;4.27;;
5841;SDS011;2947;52.276;9.946;2023-02-28T09:11:34;9.00;;;4.40;;
5841;SDS011;2947;52.276;9.946;2023-02-28T09:14:01;9.97;;;4.70;;
5841;SDS011;2947;52.276;9.946;2023-02-28T09:16:28;14.23;;;6.20;;
5841;SDS011;2947;52.276;9.946;2023-02-28T09:18:58;21.90;;;7.90;;
5841;SDS011;2947;52.276;9.946;2023-02-28T09:21:25;11.03;;;3.70;;
5841;SDS011;2947;52.276;9.946;2023-02-28T09:23:51;5.93;;;3.03;;
5841;SDS011;2947;52.276;9.946;2023-02-28T09:26:18;6.93;;;3.50;;
5841;SDS011;2947;52.276;9.946;2023-02-28T09:28:52;8.70;;;3.40;;
5841;SDS011;2947;52.276;9.946;2023-02-28T09:31:20;8.03;;;3.37;;
5841;SDS011;2947;52.276;9.946;2023-02-28T09:33:49;8.20;;;3.13;;
5841;SDS011;2947;52.276;9.946;2023-02-28T09:36:17;8.63;;;3.27;;
5841;SDS011;2947;52.276;9.946;2023-02-28T09:38:43;11.53;;;2.40;;
5841;SDS011;2947;52.276;9.946;2023-02-28T09:41:15;5.63;;;3.10;;
5841;SDS011;2947;52.276;9.946;2023-02-28T09:43:57;10.83;;;3.40;;
5841;SDS011;2947;52.276;9.946;2023-02-28T09:46:35;7.73;;;3.00;;
5841;SDS011;2947;52.276;9.946;2023-02-28T09:49:11;11.63;;;4.63;;
5841;SDS011;2947;52.276;9.946;2023-02-28T09:54:33;8.27;;;2.80;;
5841;SDS011;2947;52.276;9.946;2023-02-28T09:57:20;19.00;;;7.33;;
5841;SDS011;2947;52.276;9.946;2023-02-28T10:00:13;4.30;;;2.33;;
5841;SDS011;2947;52.276;9.946;2023-02-28T10:02:58;7.47;;;2.20;;
5841;SDS011;2947;52.276;9.946;2023-02-28T10:08:47;6.80;;;2.30;;
5841;SDS011;2947;52.276;9.946;2023-02-28T10:11:26;5.67;;;1.83;;
5841;SDS011;2947;52.276;9.946;2023-02-28T10:16:34;11.23;;;2.90;;
5841;SDS011;2947;52.276;9.946;2023-02-28T10:22:04;7.23;;;2.57;;
5841;SDS011;2947;52.276;9.946;2023-02-28T10:24:52;3.93;;;2.40;;
5841;SDS011;2947;52.276;9.946;2023-02-28T10:27:27;6.60;;;2.70;;
5841;SDS011;2947;52.276;9.946;2023-02-28T10:29:57;6.90;;;2.80;;
5841;SDS011;2947;52.276;9.946;2023-02-28T10:32:26;4.43;;;1.70;;
5841;SDS011;2947;52.276;9.946;2023-02-28T10:35:00;6.80;;;3.47;;
5841;SDS011;2947;52.276;9.946;2023-02-28T10:37:43;6.30;;;2.87;;
5841;SDS011;2947;52.276;9.946;2023-02-28T10:43:19;7.43;;;2.23;;
5841;SDS011;2947;52.276;9.946;2023-02-28T10:48:38;6.30;;;2.47;;
5841;SDS011;2947;52.276;9.946;2023-02-28T10:51:11;7.37;;;2.73;;
5841;SDS011;2947;52.276;9.946;2023-02-28T10:56:18;5.60;;;2.30;;
5841;SDS011;2947;52.276;9.946;2023-02-28T10:58:57;5.93;;;2.43;;
5841;SDS011;2947;52.276;9.946;2023-02-28T11:01:47;3.00;;;1.80;;
5841;SDS011;2947;52.276;9.946;2023-02-28T11:07:04;6.27;;;2.80;;
5841;SDS011;2947;52.276;9.946;2023-02-28T11:09:44;4.07;;;2.17;;
5841;SDS011;2947;52.276;9.946;2023-02-28T11:12:21;5.53;;;2.40;;
5841;SDS011;2947;52.276;9.946;2023-02-28T11:15:21;4.20;;;1.87;;
5841;SDS011;2947;52.276;9.946;2023-02-28T11:18:00;15.90;;;6.57;;
5841;SDS011;2947;52.276;9.946;2023-02-28T11:20:50;4.33;;;2.43;;
5841;SDS011;2947;52.276;9.946;2023-02-28T11:23:17;3.87;;;1.87;;
5841;SDS011;2947;52.276;9.946;2023-02-28T11:25:49;5.57;;;2.30;;
5841;SDS011;2947;52.276;9.946;2023-02-28T11:28:35;4.57;;;2.30;;
5841;SDS011;2947;52.276;9.946;2023-02-28T11:31:05;6.60;;;3.53;;
5841;SDS011;2947;52.276;9.946;2023-02-28T11:33:43;5.83;;;2.57;;
5841;SDS011;2947;52.276;9.946;2023-02-28T11:36:19;3.80;;;1.80;;
5841;SDS011;2947;52.276;9.946;2023-02-28T11:38:50;8.00;;;1.90;;
5841;SDS011;2947;52.276;9.946;2023-02-28T11:44:09;4.03;;;1.80;;
5841;SDS011;2947;52.276;9.946;2023-02-28T11:50:11;6.33;;;1.97;;
5841;SDS011;2947;52.276;9.946;2023-02-28T11:53:13;7.37;;;3.07;;
5841;SDS011;2947;52.276;9.946;2023-02-28T11:55:49;7.87;;;2.87;;
5841;SDS011;2947;52.276;9.946;2023-02-28T12:01:34;4.07;;;2.60;;
5841;SDS011;2947;52.276;9.946;2023-02-28T12:04:33;5.30;;;2.00;;
5841;SDS011;2947;52.276;9.946;2023-02-28T12:07:38;3.33;;;1.73;;
5841;SDS011;2947;52.276;9.946;2023-02-28T12:10:23;2.87;;;1.53;;
5841;SDS011;2947;52.276;9.946;2023-02-28T12:27:33;4.10;;;1.80;;
5841;SDS011;2947;52.276;9.946;2023-02-28T12:30:16;4.57;;;1.63;;
5841;SDS011;2947;52.276;9.946;2023-02-28T12:32:49;4.63;;;2.57;;
5841;SDS011;2947;52.276;9.946;2023-02-28T12:35:34;3.40;;;2.10;;
5841;SDS011;2947;52.276;9.946;2023-02-28T12:38:06;3.40;;;1.80;;
5841;SDS011;2947;52.276;9.946;2023-02-28T12:40:47;3.80;;;1.60;;
5841;SDS011;2947;52.276;9.946;2023-02-28T12:43:36;2.60;;;1.70;;
5841;SDS011;2947;52.276;9.946;2023-02-28T12:49:29;4.00;;;1.90;;
5841;SDS011;2947;52.276;9.946;2023-02-28T12:52:00;3.87;;;1.47;;
5841;SDS011;2947;52.276;9.946;2023-02-28T13:00:10;4.00;;;1.90;;
5841;SDS011;2947;52.276;9.946;2023-02-28T13:02:48;3.63;;;1.60;;
5841;SDS011;2947;52.276;9.946;2023-02-28T13:14:18;5.43;;;2.40;;
5841;SDS011;2947;52.276;9.946;2023-02-28T13:19:38;4.03;;;2.20;;
5841;SDS011;2947;52.276;9.946;2023-02-28T13:22:17;4.60;;;1.97;;
5841;SDS011;2947;52.276;9.946;2023-02-28T13:29:41;5.43;;;2.10;;
5841;SDS011;2947;52.276;9.946;2023-02-28T13:34:35;6.33;;;2.57;;
5841;SDS011;2947;52.276;9.946;2023-02-28T13:39:51;3.80;;;2.13;;
5841;SDS011;2947;52.276;9.946;2023-02-28T13:42:33;3.40;;;2.00;;
5841;SDS011;2947;52.276;9.946;2023-02-28T13:45:27;4.63;;;2.10;;
5841;SDS011;2947;52.276;9.946;2023-02-28T13:48:01;3.90;;;1.90;;
5841;SDS011;2947;52.276;9.946;2023-02-28T13:50:31;5.73;;;2.33;;
5841;SDS011;2947;52.276;9.946;2023-02-28T14:01:56;7.90;;;1.87;;
5841;SDS011;2947;52.276;9.946;2023-02-28T14:07:57;4.33;;;1.63;;
5841;SDS011;2947;52.276;9.946;2023-02-28T14:16:16;3.47;;;2.00;;
5841;SDS011;2947;52.276;9.946;2023-02-28T14:18:56;6.07;;;2.60;;
5841;SDS011;2947;52.276;9.946;2023-02-28T14:21:34;4.03;;;2.00;;
5841;SDS011;2947;52.276;9.946;2023-02-28T14:29:44;4.67;;;3.10;;
5841;SDS011;2947;52.276;9.946;2023-02-28T14:39:07;4.50;;;2.47;;
5841;SDS011;2947;52.276;9.946;2023-02-28T14:41:46;3.37;;;2.00;;
5841;SDS011;2947;52.276;9.946;2023-02-28T14:44:19;3.50;;;2.03;;
5841;SDS011;2947;52.276;9.946;2023-02-28T14:47:00;5.13;;;2.40;;
5841;SDS011;2947;52.276;9.946;2023-02-28T14:50:03;5.50;;;2.60;;
5841;SDS011;2947;52.276;9.946;2023-02-28T14:52:24;3.10;;;1.70;;
5841;SDS011;2947;52.276;9.946;2023-02-28T14:54:57;4.53;;;2.23;;
5841;SDS011;2947;52.276;9.946;2023-02-28T14:57:40;3.10;;;1.77;;
5841;SDS011;2947;52.276;9.946;2023-02-28T15:00:16;5.63;;;2.20;;
5841;SDS011;2947;52.276;9.946;2023-02-28T15:02:54;9.63;;;3.00;;
5841;SDS011;2947;52.276;9.946;2023-02-28T15:05:26;4.13;;;2.50;;
5841;SDS011;2947;52.276;9.946;2023-02-28T15:08:15;7.00;;;2.60;;
5841;SDS011;2947;52.276;9.946;2023-02-28T15:10:49;8.70;;;2.50;;
5841;SDS011;2947;52.276;9.946;2023-02-28T15:13:48;5.33;;;2.17;;
5841;SDS011;2947;52.276;9.946;2023-02-28T15:16:20;4.83;;;1.93;;
5841;SDS011;2947;52.276;9.946;2023-02-28T15:18:55;4.80;;;2.00;;
5841;SDS011;2947;52.276;9.946;2023-02-28T15:21:40;5.77;;;2.60;;
5841;SDS011;2947;52.276;9.946;2023-02-28T15:24:17;6.13;;;2.20;;
5841;SDS011;2947;52.276;9.946;2023-02-28T15:26:58;5.03;;;2.30;;
5841;SDS011;2947;52.276;9.946;2023-02-28T15:29:29;3.63;;;2.00;;
5841;SDS011;2947;52.276;9.946;2023-02-28T15:32:16;7.10;;;2.07;;
5841;SDS011;2947;52.276;9.946;2023-02-28T15:34:57;6.27;;;3.03;;
5841;SDS011;2947;52.276;9.946;2023-02-28T15:37:39;5.80;;;2.93;;
5841;SDS011;2947;52.276;9.946;2023-02-28T15:40:41;4.80;;;2.70;;
5841;SDS011;2947;52.276;9.946;2023-02-28T15:43:36;6.70;;;2.83;;
5841;SDS011;2947;52.276;9.946;2023-02-28T15:46:07;5.90;;;2.63;;
5841;SDS011;2947;52.276;9.946;2023-02-28T15:48:57;4.57;;;2.13;;
5841;SDS011;2947;52.276;9.946;2023-02-28T15:51:27;4.97;;;2.40;;
5841;SDS011;2947;52.276;9.946;2023-02-28T15:54:02;7.97;;;3.37;;
5841;SDS011;2947;52.276;9.946;2023-02-28T15:56:35;8.07;;;3.50;;
5841;SDS011;2947;52.276;9.946;2023-02-28T15:59:13;9.70;;;3.90;;
5841;SDS011;2947;52.276;9.946;2023-02-28T16:01:43;6.30;;;2.20;;
5841;SDS011;2947;52.276;9.946;2023-02-28T16:04:17;7.10;;;3.03;;
5841;SDS011;2947;52.276;9.946;2023-02-28T16:06:45;6.20;;;2.87;;
5841;SDS011;2947;52.276;9.946;2023-02-28T16:09:25;5.53;;;2.80;;
5841;SDS011;2947;52.276;9.946;2023-02-28T16:11:52;5.40;;;2.60;;
5841;SDS011;2947;52.276;9.946;2023-02-28T16:14:23;5.47;;;2.43;;
5841;SDS011;2947;52.276;9.946;2023-02-28T16:16:55;6.13;;;2.40;;
5841;SDS011;2947;52.276;9.946;2023-02-28T16:19:28;6.37;;;2.70;;
5841;SDS011;2947;52.276;9.946;2023-02-28T16:21:54;5.57;;;2.47;;
5841;SDS011;2947;52.276;9.946;2023-02-28T16:24:19;4.80;;;2.77;;
5841;SDS011;2947;52.276;9.946;2023-02-28T16:26:46;6.70;;;3.10;;
5841;SDS011;2947;52.276;9.946;2023-02-28T16:29:28;7.43;;;3.13;;
5841;SDS011;2947;52.276;9.946;2023-02-28T16:31:58;4.90;;;2.40;;
5841;SDS011;2947;52.276;9.946;2023-02-28T16:34:25;5.10;;;2.13;;
5841;SDS011;2947;52.276;9.946;2023-02-28T16:36:51;5.17;;;2.80;;
5841;SDS011;2947;52.276;9.946;2023-02-28T16:39:17;5.50;;;3.20;;
5841;SDS011;2947;52.276;9.946;2023-02-28T16:41:45;6.67;;;3.83;;
5841;SDS011;2947;52.276;9.946;2023-02-28T16:44:13;6.70;;;3.80;;
5841;SDS011;2947;52.276;9.946;2023-02-28T16:46:54;11.50;;;3.50;;
5841;SDS011;2947;52.276;9.946;2023-02-28T16:49:20;11.23;;;4.10;;
5841;SDS011;2947;52.276;9.946;2023-02-28T16:51:46;17.13;;;3.73;;
5841;SDS011;2947;52.276;9.946;2023-02-28T16:54:12;8.63;;;3.90;;
5841;SDS011;2947;52.276;9.946;2023-02-28T16:56:39;6.90;;;3.33;;
5841;SDS011;2947;52.276;9.946;2023-02-28T16:59:09;7.23;;;3.10;;
5841;SDS011;2947;52.276;9.946;2023-02-28T17:01:36;5.97;;;2.60;;
5841;SDS011;2947;52.276;9.946;2023-02-28T17:04:02;6.80;;;3.60;;
5841;SDS011;2947;52.276;9.946;2023-02-28T17:06:28;6.83;;;3.33;;
5841;SDS011;2947;52.276;9.946;2023-02-28T17:08:55;7.97;;;4.40;;
5841;SDS011;2947;52.276;9.946;2023-02-28T17:11:25;8.23;;;3.80;;
5841;SDS011;2947;52.276;9.946;2023-02-28T17:13:51;5.60;;;2.90;;
5841;SDS011;2947;52.276;9.946;2023-02-28T17:16:25;5.73;;;2.93;;
5841;SDS011;2947;52.276;9.946;2023-02-28T17:19:05;5.30;;;2.73;;
5841;SDS011;2947;52.276;9.946;2023-02-28T17:21:36;4.67;;;2.97;;
5841;SDS011;2947;52.276;9.946;2023-02-28T17:24:02;7.10;;;3.40;;
5841;SDS011;2947;52.276;9.946;2023-02-28T17:26:29;7.10;;;3.40;;
5841;SDS011;2947;52.276;9.946;2023-02-28T17:28:56;7.03;;;3.60;;
5841;SDS011;2947;52.276;9.946;2023-02-28T17:31:23;6.13;;;3.83;;
5841;SDS011;2947;52.276;9.946;2023-02-28T17:33:50;7.73;;;4.30;;
5841;SDS011;2947;52.276;9.946;2023-02-28T17:36:18;9.40;;;4.30;;
5841;SDS011;2947;52.276;9.946;2023-02-28T17:38:53;8.27;;;3.90;;
5841;SDS011;2947;52.276;9.946;2023-02-28T17:41:23;12.53;;;5.13;;
5841;SDS011;2947;52.276;9.946;2023-02-28T17:43:51;22.20;;;8.10;;
5841;SDS011;2947;52.276;9.946;2023-02-28T17:46:19;11.27;;;6.23;;
5841;SDS011;2947;52.276;9.946;2023-02-28T17:48:47;19.50;;;8.10;;
5841;SDS011;2947;52.276;9.946;2023-02-28T17:51:14;11.50;;;5.70;;
5841;SDS011;2947;52.276;9.946;2023-02-28T17:53:42;8.43;;;4.00;;
5841;SDS011;2947;52.276;9.946;2023-02-28T17:56:12;9.87;;;4.67;;